Time;durP1;ratioP1;P1;durP2;ratioP2;P2;SDS_P1;SDS_P2;PMS_P1;PMS_P2;Temp;Humidity;BMP_temperature;BMP_pressure;BME280_temperature;BME280_humidity;BME280_pressure;Samples;Min_cycle;Max_cycle;Signal;HPM_P1;HPM_P2
2021/10/01 00:00:12;;;;;;;25.80;11.10;;;;;;;10.11;76.77;100222.65;113090;1195;97527;-71
2021/10/01 00:02:59;;;;;;;21.60;10.20;;;;;;;10.10;76.77;100221.12;112979;1195;113614;-72
2021/10/01 00:05:27;;;;;;;22.70;10.80;;;;;;;10.09;76.73;100221.17;113096;1195;97652;-70
2021/10/01 00:07:55;;;;;;;22.00;10.50;;;;;;;10.10;76.87;100220.44;113296;1194;107353;-71
2021/10/01 00:10:23;;;;;;;26.10;11.60;;;;;;;10.11;76.85;100215.59;113334;1195;97556;-70
2021/10/01 00:12:51;;;;;;;21.90;11.20;;;;;;;10.10;76.79;100212.98;113339;1195;97743;-70
2021/10/01 00:15:18;;;;;;;22.70;11.20;;;;;;;10.11;76.85;100213.46;113221;1195;111299;-71
2021/10/01 00:17:46;;;;;;;21.50;11.40;;;;;;;10.11;76.85;100216.30;113263;1194;98060;-70
2021/10/01 00:20:16;;;;;;;22.80;11.60;;;;;;;10.12;76.96;100222.42;113247;1195;107318;-71
2021/10/01 00:22:45;;;;;;;23.60;11.90;;;;;;;10.14;76.94;100220.77;113248;1195;97625;-70
2021/10/01 00:25:13;;;;;;;22.20;11.60;;;;;;;10.15;76.84;100217.71;113317;1195;97606;-70
2021/10/01 00:27:41;;;;;;;24.30;12.20;;;;;;;10.14;76.96;100212.61;113192;1195;111762;-71
2021/10/01 00:30:09;;;;;;;24.10;11.10;;;;;;;10.11;76.81;100209.21;113318;1195;97567;-71
2021/10/01 00:32:37;;;;;;;21.20;10.90;;;;;;;10.09;76.79;100205.77;113292;1195;107666;-71
2021/10/01 00:35:05;;;;;;;22.40;11.00;;;;;;;10.09;76.91;100204.33;113240;1195;97585;-71
2021/10/01 00:37:33;;;;;;;23.00;11.50;;;;;;;10.10;76.79;100209.09;113226;1195;97652;-70
2021/10/01 00:40:00;;;;;;;20.50;9.60;;;;;;;10.05;76.70;100211.48;113212;1195;111017;-70
2021/10/01 00:42:28;;;;;;;21.60;10.20;;;;;;;10.02;76.84;100210.57;113183;1196;97633;-69
2021/10/01 00:44:57;;;;;;;21.10;9.90;;;;;;;10.03;76.85;100211.93;114138;1195;107375;-70
2021/10/01 00:47:25;;;;;;;19.80;8.70;;;;;;;10.03;76.86;100215.80;113203;1195;97026;-69
2021/10/01 00:49:56;;;;;;;20.40;9.40;;;;;;;10.04;76.83;100212.43;113190;1196;97711;-70
2021/10/01 00:52:28;;;;;;;19.60;10.30;;;;;;;10.05;76.88;100210.74;113270;1195;110318;-70
2021/10/01 00:55:02;;;;;;;19.60;9.50;;;;;;;10.06;76.82;100206.13;113204;1195;97607;-70
2021/10/01 00:57:30;;;;;;;20.70;9.90;;;;;;;10.06;76.87;100201.84;113209;1200;107274;-70
2021/10/01 01:00:03;;;;;;;20.20;9.50;;;;;;;10.07;76.89;100200.41;113159;1195;97663;-70
2021/10/01 01:02:31;;;;;;;17.80;8.40;;;;;;;10.07;76.85;100200.57;113126;1195;96118;-67
2021/10/01 01:05:00;;;;;;;18.50;9.10;;;;;;;10.06;76.82;100192.60;114132;1196;111139;-71
2021/10/01 01:07:58;;;;;;;20.80;9.50;;;;;;;10.06;76.80;100194.55;112995;1196;96058;-71
2021/10/01 01:10:28;;;;;;;18.20;9.30;;;;;;;10.06;76.93;100197.59;113185;1195;107461;-71
2021/10/01 01:13:31;;;;;;;20.00;9.50;;;;;;;10.07;76.90;100201.80;113136;1195;97657;-72
2021/10/01 01:16:17;;;;;;;18.50;8.60;;;;;;;10.08;76.88;100198.89;113208;1195;97657;-70
2021/10/01 01:18:52;;;;;;;21.70;10.40;;;;;;;10.09;76.90;100201.52;113154;1195;111243;-70
2021/10/01 01:21:53;;;;;;;21.20;9.90;;;;;;;10.09;76.91;100202.06;113133;1195;94997;-69
2021/10/01 01:24:26;;;;;;;21.70;9.60;;;;;;;10.07;76.88;100205.86;113183;1195;107477;-69
2021/10/01 01:27:22;;;;;;;23.70;10.10;;;;;;;10.04;76.84;100206.02;113198;1195;97674;-70
2021/10/01 01:29:58;;;;;;;23.80;10.60;;;;;;;10.02;76.78;100205.45;113166;1195;98102;-71
2021/10/01 01:32:32;;;;;;;22.70;10.20;;;;;;;10.00;76.90;100203.23;113186;1195;111364;-71
2021/10/01 01:35:10;;;;;;;22.00;11.20;;;;;;;10.02;76.98;100198.18;113204;1195;97624;-71
2021/10/01 01:38:00;;;;;;;23.30;9.60;;;;;;;10.02;76.93;100198.68;113070;1196;107453;-73
2021/10/01 01:40:35;;;;;;;22.50;10.50;;;;;;;10.03;77.00;100198.63;113193;1195;97647;-71
2021/10/01 01:43:09;;;;;;;22.70;10.30;;;;;;;10.04;77.02;100193.41;113108;1196;97631;-72
2021/10/01 01:45:46;;;;;;;21.70;9.80;;;;;;;10.05;76.91;100188.61;113218;1195;111246;-71
2021/10/01 01:48:19;;;;;;;21.60;10.60;;;;;;;10.06;76.92;100187.16;113178;1195;97662;-70
2021/10/01 01:50:51;;;;;;;20.00;10.10;;;;;;;10.06;76.98;100183.23;113228;1195;107492;-72
2021/10/01 01:53:24;;;;;;;20.40;10.50;;;;;;;10.08;76.95;100183.52;113213;1195;97519;-73
2021/10/01 01:56:00;;;;;;;21.90;9.80;;;;;;;10.09;76.99;100179.39;113196;1195;97561;-71
2021/10/01 01:58:33;;;;;;;22.30;10.10;;;;;;;10.09;77.01;100175.30;113183;1195;110758;-72
2021/10/01 02:01:07;;;;;;;20.60;10.20;;;;;;;10.09;77.03;100175.65;113229;1195;96473;-71
2021/10/01 02:03:41;;;;;;;19.40;9.30;;;;;;;10.07;76.82;100175.72;113117;1195;107325;-71
2021/10/01 02:06:15;;;;;;;23.20;11.10;;;;;;;10.01;76.88;100174.46;113224;1195;97649;-69
2021/10/01 02:08:48;;;;;;;19.60;9.20;;;;;;;9.96;76.78;100172.10;113203;1195;95168;-71
2021/10/01 02:11:23;;;;;;;18.90;9.70;;;;;;;9.86;76.72;100172.58;113220;1195;110616;-74
2021/10/01 02:13:58;;;;;;;21.40;9.40;;;;;;;9.68;76.79;100169.23;113238;1195;97672;-67
2021/10/01 02:16:31;;;;;;;18.80;9.60;;;;;;;9.53;76.75;100170.22;113210;1195;107179;-72
2021/10/01 02:19:05;;;;;;;20.30;9.30;;;;;;;9.44;76.80;100167.45;113191;1195;97653;-70
2021/10/01 02:21:37;;;;;;;19.80;9.90;;;;;;;9.40;76.88;100172.28;113206;1195;94952;-71
2021/10/01 02:24:09;;;;;;;22.00;10.60;;;;;;;9.37;76.95;100172.73;113171;1195;112821;-72
2021/10/01 02:26:43;;;;;;;20.40;9.60;;;;;;;9.34;76.85;100171.46;113197;1195;96405;-71
2021/10/01 02:29:37;;;;;;;;;;;;;;;9.30;76.87;100173.84;113191;1195;106819;-71
2021/10/01 02:32:27;;;;;;;21.00;9.90;;;;;;;9.26;77.12;100168.17;113129;1195;95540;-69
2021/10/01 02:35:06;;;;;;;21.90;10.20;;;;;;;9.30;77.17;100168.00;113221;1195;95125;-71
2021/10/01 02:37:39;;;;;;;20.10;10.10;;;;;;;9.33;77.27;100169.94;113165;1195;111179;-72
2021/10/01 02:40:12;;;;;;;21.10;10.90;;;;;;;9.37;77.25;100171.16;113221;1195;98141;-72
2021/10/01 02:42:44;;;;;;;21.80;10.80;;;;;;;9.39;77.17;100169.27;113201;1195;107417;-69
2021/10/01 02:45:17;;;;;;;21.30;10.00;;;;;;;9.42;77.30;100169.67;113157;1197;96488;-70
2021/10/01 02:47:49;;;;;;;21.60;11.00;;;;;;;9.45;77.27;100168.48;113161;1195;95005;-71
2021/10/01 02:50:23;;;;;;;21.30;10.70;;;;;;;9.47;77.29;100172.62;113194;1195;111139;-70
2021/10/01 02:53:19;;;;;;;21.10;11.00;;;;;;;9.47;77.28;100174.36;113069;1196;98012;-70
2021/10/01 02:56:19;;;;;;;20.70;10.00;;;;;;;9.48;77.33;100169.35;113225;1195;107535;-70
2021/10/01 02:59:09;;;;;;;20.30;10.40;;;;;;;9.48;77.24;100174.67;113105;1195;95091;-69
2021/10/01 03:01:46;;;;;;;22.30;10.50;;;;;;;9.49;77.32;100176.04;113254;1195;97651;-70
2021/10/01 03:04:19;;;;;;;23.20;10.80;;;;;;;9.51;77.34;100177.19;113224;1197;111381;-70
2021/10/01 03:06:52;;;;;;;21.00;10.60;;;;;;;9.54;77.33;100179.36;113253;1195;96049;-71
2021/10/01 03:09:28;;;;;;;20.80;10.60;;;;;;;9.55;77.38;100181.96;113111;1195;107538;-70
2021/10/01 03:12:04;;;;;;;21.70;11.00;;;;;;;9.57;77.28;100183.84;113109;1195;98421;-70
2021/10/01 03:14:38;;;;;;;21.80;10.90;;;;;;;9.58;77.24;100181.27;113131;1195;97665;-68
2021/10/01 03:17:10;;;;;;;23.10;12.20;;;;;;;9.59;77.31;100176.77;113198;1195;111177;-70
2021/10/01 03:19:43;;;;;;;22.40;11.00;;;;;;;9.60;77.26;100176.40;113219;1195;97566;-70
2021/10/01 03:22:15;;;;;;;25.90;12.00;;;;;;;9.62;77.34;100179.65;113215;1195;107443;-69
2021/10/01 03:24:49;;;;;;;23.60;11.60;;;;;;;9.62;77.31;100180.88;113200;1195;96865;-71
2021/10/01 03:27:21;;;;;;;;;;;;;;;9.63;77.36;100176.92;113209;1195;97660;-72
2021/10/01 03:29:49;;;;;;;23.80;10.80;;;;;;;9.62;77.47;100174.17;113220;1195;111211;-73
2021/10/01 03:32:26;;;;;;;21.20;10.20;;;;;;;9.63;77.36;100175.52;113230;1195;95042;-71
2021/10/01 03:34:54;;;;;;;24.20;11.70;;;;;;;9.64;77.39;100178.10;113239;1195;107762;-72
2021/10/01 03:37:22;;;;;;;22.70;12.00;;;;;;;9.65;77.37;100177.91;113199;1195;95030;-69
2021/10/01 03:39:59;;;;;;;22.70;12.70;;;;;;;9.66;77.45;100179.08;113238;1195;97658;-71
2021/10/01 03:42:32;;;;;;;24.40;12.50;;;;;;;9.66;77.34;100178.19;113072;1196;111174;-70
2021/10/01 03:45:06;;;;;;;24.40;12.60;;;;;;;9.66;77.34;100183.69;113231;1195;97656;-71
2021/10/01 03:47:34;;;;;;;26.30;13.80;;;;;;;9.66;77.40;100180.31;113208;1195;107356;-71
2021/10/01 03:50:03;;;;;;;26.40;14.10;;;;;;;9.65;77.34;100179.33;113168;1196;97640;-70
2021/10/01 03:52:35;;;;;;;24.60;14.00;;;;;;;9.64;77.35;100178.10;113194;1197;97667;-70
2021/10/01 03:55:08;;;;;;;25.20;13.00;;;;;;;9.64;77.38;100177.04;113243;1195;110894;-70
2021/10/01 03:57:36;;;;;;;24.70;13.60;;;;;;;9.64;77.36;100179.35;113221;1195;95027;-70
2021/10/01 04:00:08;;;;;;;23.00;12.50;;;;;;;9.63;77.41;100179.23;113211;1195;107124;-70
2021/10/01 04:02:36;;;;;;;23.00;13.20;;;;;;;9.65;77.39;100182.69;113128;1196;98714;-70
2021/10/01 04:05:08;;;;;;;23.50;12.30;;;;;;;9.66;77.46;100179.98;113127;1195;95221;-69
2021/10/01 04:07:37;;;;;;;24.50;13.00;;;;;;;9.65;77.41;100177.19;113128;1195;110907;-69
2021/10/01 04:10:07;;;;;;;28.60;13.70;;;;;;;9.65;77.35;100175.23;113145;1195;97609;-70
2021/10/01 04:12:35;;;;;;;22.00;12.60;;;;;;;9.66;77.45;100173.23;113143;1195;107354;-69
2021/10/01 04:15:07;;;;;;;24.00;12.70;;;;;;;9.68;77.44;100171.91;113167;1195;95728;-70
2021/10/01 04:17:35;;;;;;;23.00;12.40;;;;;;;9.67;77.42;100172.67;113220;1195;97647;-70
2021/10/01 04:20:07;;;;;;;23.40;13.40;;;;;;;9.66;77.36;100176.05;113150;1195;111147;-71
2021/10/01 04:22:34;;;;;;;24.80;13.10;;;;;;;9.65;77.35;100177.17;113124;1196;97635;-71
2021/10/01 04:25:02;;;;;;;26.30;14.10;;;;;;;9.65;77.34;100180.75;113102;1196;107529;-70
2021/10/01 04:27:30;;;;;;;24.00;14.50;;;;;;;9.60;77.31;100179.77;113206;1195;97584;-72
2021/10/01 04:30:00;;;;;;;24.50;13.40;;;;;;;9.48;77.08;100179.80;113213;1195;98284;-72
2021/10/01 04:32:29;;;;;;;25.50;14.10;;;;;;;9.40;77.22;100179.14;113164;1195;111185;-72
2021/10/01 04:35:03;;;;;;;22.80;13.00;;;;;;;9.38;77.34;100184.35;113191;1196;97533;-73
2021/10/01 04:37:36;;;;;;;24.30;13.30;;;;;;;9.38;77.38;100185.09;113139;1197;108557;-70
2021/10/01 04:40:08;;;;;;;24.30;13.20;;;;;;;9.36;77.34;100188.91;113117;1195;96090;-69
2021/10/01 04:42:36;;;;;;;25.60;13.60;;;;;;;9.35;77.35;100191.80;113154;1195;97676;-70
2021/10/01 04:45:08;;;;;;;24.00;13.70;;;;;;;9.34;77.48;100196.08;113109;1195;111774;-69
2021/10/01 04:47:37;;;;;;;22.90;12.60;;;;;;;9.33;77.38;100199.49;113146;1195;97692;-69
2021/10/01 04:50:14;;;;;;;;;;;;;;;9.33;77.43;100197.04;113122;1195;107544;-70
2021/10/01 04:52:41;;;;;;;23.40;12.20;;;;;;;9.31;77.47;100196.45;113216;1194;95128;-69
2021/10/01 04:55:09;;;;;;;23.00;12.10;;;;;;;9.30;77.41;100194.16;113231;1195;97536;-67
2021/10/01 04:57:37;;;;;;;23.10;12.00;;;;;;;9.29;77.42;100196.51;113192;1195;111337;-69
2021/10/01 05:00:10;;;;;;;22.90;11.90;;;;;;;9.29;77.43;100195.64;113152;1196;95028;-68
2021/10/01 05:02:37;;;;;;;26.10;13.40;;;;;;;9.31;77.54;100195.73;113077;1195;107548;-69
2021/10/01 05:05:06;;;;;;;23.90;13.30;;;;;;;9.33;77.50;100197.58;113126;1195;97634;-69
2021/10/01 05:07:36;;;;;;;28.90;14.60;;;;;;;9.34;77.53;100199.11;113191;1195;97662;-68
2021/10/01 05:10:06;;;;;;;27.10;15.50;;;;;;;9.36;77.44;100199.70;113226;1194;111150;-69
2021/10/01 05:12:33;;;;;;;27.40;15.10;;;;;;;9.37;77.52;100198.78;113178;1195;97522;-67
2021/10/01 05:15:01;;;;;;;25.90;14.70;;;;;;;9.37;77.52;100200.00;113179;1194;107798;-69
2021/10/01 05:17:29;;;;;;;23.70;13.00;;;;;;;9.38;77.41;100198.02;113134;1195;97660;-70
2021/10/01 05:19:57;;;;;;;24.00;13.00;;;;;;;9.38;77.54;100199.23;113092;1195;95051;-70
2021/10/01 05:22:25;;;;;;;23.50;13.10;;;;;;;9.40;77.50;100201.64;113157;1195;111130;-70
2021/10/01 05:24:53;;;;;;;23.60;13.30;;;;;;;9.41;77.51;100202.98;113250;1195;97648;-71
2021/10/01 05:27:22;;;;;;;24.80;12.90;;;;;;;9.42;77.42;100202.80;113152;1195;107693;-70
2021/10/01 05:29:49;;;;;;;26.90;14.60;;;;;;;9.41;77.46;100207.27;113145;1195;96708;-71
2021/10/01 05:32:17;;;;;;;26.00;13.10;;;;;;;9.42;77.48;100206.52;113214;1195;97684;-70
2021/10/01 05:34:45;;;;;;;23.70;11.80;;;;;;;9.43;77.49;100203.08;113084;1195;109135;-70
2021/10/01 05:37:14;;;;;;;23.60;11.50;;;;;;;9.46;77.46;100201.34;113251;1195;95026;-69
2021/10/01 05:39:42;;;;;;;23.70;12.20;;;;;;;9.49;77.45;100202.10;113267;1195;107539;-71
2021/10/01 05:42:10;;;;;;;23.90;11.50;;;;;;;9.51;77.46;100201.63;113191;1195;96815;-69
2021/10/01 05:44:37;;;;;;;25.60;12.20;;;;;;;9.55;77.41;100201.64;113233;1194;97606;-69
2021/10/01 05:47:07;;;;;;;24.40;12.30;;;;;;;9.57;77.49;100205.45;113229;1195;111096;-70
2021/10/01 05:49:39;;;;;;;24.10;12.40;;;;;;;9.53;77.37;100210.89;113011;1196;97626;-69
2021/10/01 05:54:51;;;;;;;22.00;11.40;;;;;;;9.52;77.49;100207.77;113187;1195;97579;-69
2021/10/01 05:57:19;;;;;;;23.00;12.30;;;;;;;9.53;77.50;100209.68;113136;1196;97585;-72
2021/10/01 05:59:48;;;;;;;21.90;11.40;;;;;;;9.56;77.54;100214.16;113121;1195;111215;-72
2021/10/01 06:02:19;;;;;;;23.20;12.30;;;;;;;9.59;77.60;100212.95;113179;1195;97494;-71
2021/10/01 06:04:52;;;;;;;23.90;12.60;;;;;;;9.62;77.58;100209.23;113235;1195;107498;-69
2021/10/01 06:07:20;;;;;;;29.70;16.40;;;;;;;9.64;77.63;100206.48;113196;1195;97605;-71
2021/10/01 06:09:49;;;;;;;33.30;17.40;;;;;;;9.66;77.53;100211.14;113197;1195;97625;-70
2021/10/01 06:12:17;;;;;;;34.70;18.90;;;;;;;9.71;77.62;100214.63;113299;1195;110921;-71
2021/10/01 06:14:46;;;;;;;41.20;20.80;;;;;;;9.77;77.58;100215.02;113250;1195;97574;-71
2021/10/01 06:17:15;;;;;;;37.70;21.40;;;;;;;9.82;77.54;100212.29;113119;1195;106879;-73
2021/10/01 06:19:44;;;;;;;37.70;20.30;;;;;;;9.87;77.53;100217.88;113161;1195;96472;-71
2021/10/01 06:22:12;;;;;;;35.80;19.30;;;;;;;9.92;77.53;100216.38;113261;1195;97564;-70
2021/10/01 06:24:42;;;;;;;34.80;17.90;;;;;;;9.98;77.49;100219.27;113229;1195;111178;-70
2021/10/01 06:27:11;;;;;;;31.40;16.50;;;;;;;10.05;77.52;100216.45;113254;1195;97630;-70
2021/10/01 06:29:39;;;;;;;27.80;13.60;;;;;;;10.13;77.53;100220.10;113171;1195;107424;-69
2021/10/01 06:32:07;;;;;;;24.30;13.20;;;;;;;10.18;77.57;100224.12;113209;1195;97572;-70
2021/10/01 06:34:35;;;;;;;25.10;13.50;;;;;;;10.23;77.64;100226.12;113228;1195;97578;-71
2021/10/01 06:37:03;;;;;;;22.70;12.00;;;;;;;10.30;77.67;100221.67;113213;1195;111196;-72
2021/10/01 06:39:31;;;;;;;25.70;12.60;;;;;;;10.36;77.67;100220.30;113160;1195;97553;-71
2021/10/01 06:41:58;;;;;;;23.80;11.30;;;;;;;10.43;77.73;100218.04;113120;1195;105905;-71
2021/10/01 06:44:31;;;;;;;24.10;11.70;;;;;;;10.49;77.69;100217.50;113134;1195;97633;-72
2021/10/01 06:47:05;;;;;;;20.30;9.50;;;;;;;10.57;77.72;100219.96;113186;1195;95847;-72
2021/10/01 06:49:53;;;;;;;14.90;7.00;;;;;;;10.63;77.73;100219.79;113170;1195;112114;-70
2021/10/01 08:20:56;;;;;;;14.90;6.40;;;;;;;12.46;77.21;100206.73;112835;1196;97739;-68
2021/10/01 08:23:24;;;;;;;12.90;5.60;;;;;;;12.44;77.10;100204.04;112767;1196;95620;-72
2021/10/01 08:25:52;;;;;;;12.90;5.80;;;;;;;12.41;77.13;100206.56;113064;1196;110898;-71
2021/10/01 08:28:26;;;;;;;11.20;5.30;;;;;;;12.40;77.15;100202.52;113102;1195;97688;-72
2021/10/01 08:30:54;;;;;;;10.40;5.50;;;;;;;12.40;77.00;100202.54;113138;1195;107394;-73
2021/10/01 08:33:22;;;;;;;12.10;5.60;;;;;;;12.41;77.01;100200.88;113075;1195;94962;-70
2021/10/01 08:35:49;;;;;;;12.90;5.80;;;;;;;12.42;77.06;100199.75;113192;1195;97682;-70
2021/10/01 08:38:18;;;;;;;14.90;6.20;;;;;;;12.44;77.11;100198.69;113130;1195;111236;-70
2021/10/01 08:40:46;;;;;;;12.40;5.50;;;;;;;12.51;77.01;100196.30;113137;1195;97721;-71
2021/10/01 08:43:15;;;;;;;11.10;5.30;;;;;;;12.54;76.94;100195.42;113093;1196;108349;-71
2021/10/01 08:45:44;;;;;;;19.80;10.10;;;;;;;12.56;76.96;100191.77;113046;1196;98264;-69
2021/10/01 08:48:13;;;;;;;15.80;6.50;;;;;;;12.59;76.92;100186.02;112842;1196;97643;-70
2021/10/01 08:50:42;;;;;;;10.90;5.60;;;;;;;12.60;76.72;100182.25;113049;1195;111352;-71
2021/10/01 08:53:11;;;;;;;14.40;6.40;;;;;;;12.61;76.76;100179.13;113125;1195;97556;-70
2021/10/01 08:55:45;;;;;;;13.60;6.00;;;;;;;12.71;76.97;100175.81;113083;1196;107508;-68
2021/10/01 08:58:15;;;;;;;11.90;6.20;;;;;;;12.87;76.79;100173.05;113021;1196;95069;-71
2021/10/01 09:00:43;;;;;;;11.30;5.30;;;;;;;12.97;76.78;100169.75;113094;1195;97674;-69
2021/10/01 09:03:11;;;;;;;10.30;5.30;;;;;;;13.00;76.76;100169.89;112897;1196;111186;-68
2021/10/01 09:05:40;;;;;;;12.10;5.70;;;;;;;13.02;76.68;100170.30;112932;1196;97663;-70
2021/10/01 09:08:17;;;;;;;12.80;5.90;;;;;;;13.04;76.67;100165.90;113123;1195;105824;-70
2021/10/01 09:10:56;;;;;;;11.50;5.60;;;;;;;13.10;76.63;100166.22;113048;1196;97674;-70
2021/10/01 09:13:26;;;;;;;12.30;5.60;;;;;;;13.17;76.62;100159.88;113153;1195;97689;-70
2021/10/01 09:16:06;;;;;;;12.30;5.70;;;;;;;13.29;76.65;100163.02;112932;1197;111315;-69
2021/10/01 09:18:39;;;;;;;12.50;5.30;;;;;;;13.40;76.69;100163.02;113126;1196;97552;-70
2021/10/01 09:21:10;;;;;;;12.20;5.40;;;;;;;13.44;76.61;100163.15;113053;1196;106903;-70
2021/10/01 09:23:43;;;;;;;11.50;5.10;;;;;;;13.42;76.54;100164.34;113085;1197;97621;-69
2021/10/01 09:26:18;;;;;;;12.10;5.20;;;;;;;13.38;76.46;100163.13;113008;1196;97547;-70
2021/10/01 09:29:00;;;;;;;10.20;5.20;;;;;;;13.38;76.48;100161.14;112977;1195;111241;-70
2021/10/01 09:31:33;;;;;;;10.20;4.80;;;;;;;13.40;76.56;100164.78;113041;1195;97520;-71
2021/10/01 09:34:05;;;;;;;10.60;5.10;;;;;;;13.41;76.49;100159.74;113165;1195;107479;-71
2021/10/01 09:36:35;;;;;;;10.30;5.00;;;;;;;13.40;76.41;100161.23;113170;1197;97608;-71
2021/10/01 09:39:05;;;;;;;9.80;4.50;;;;;;;13.38;76.30;100160.27;113209;1195;97712;-70
2021/10/01 09:41:37;;;;;;;9.70;5.00;;;;;;;13.37;76.30;100159.98;113097;1196;112563;-70
2021/10/01 09:44:16;;;;;;;13.30;5.50;;;;;;;13.35;76.27;100157.60;113127;1196;95052;-70
2021/10/01 09:46:50;;;;;;;11.10;5.10;;;;;;;13.35;76.18;100158.55;112856;1196;107519;-70
2021/10/01 09:49:29;;;;;;;10.90;5.10;;;;;;;13.36;76.13;100155.94;113133;1196;97584;-70
2021/10/01 09:51:59;;;;;;;10.20;4.70;;;;;;;13.37;76.07;100158.74;112907;1196;97675;-71
2021/10/01 09:54:29;;;;;;;11.20;5.00;;;;;;;13.40;76.14;100160.86;113003;1195;109222;-69
2021/10/01 09:57:04;;;;;;;12.40;5.10;;;;;;;13.47;76.13;100163.43;112975;1197;94989;-70
2021/10/01 09:59:35;;;;;;;10.40;5.10;;;;;;;13.57;76.23;100161.02;112976;1196;107482;-71
2021/10/01 10:02:10;;;;;;;7.90;4.50;;;;;;;13.63;76.20;100164.52;113185;1195;97662;-76
2021/10/01 10:04:41;;;;;;;10.80;4.70;;;;;;;13.66;76.10;100161.07;113160;1196;95716;-71
2021/10/01 10:07:18;;;;;;;9.00;4.50;;;;;;;13.70;76.03;100159.73;113142;1196;111260;-71
2021/10/01 10:10:08;;;;;;;9.80;4.90;;;;;;;13.84;76.02;100155.63;113089;1196;97467;-71
2021/10/01 10:12:41;;;;;;;9.70;5.10;;;;;;;14.10;75.94;100152.92;113037;1196;107541;-71
2021/10/01 10:15:16;;;;;;;13.20;5.00;;;;;;;14.27;75.93;100149.98;112760;1196;97657;-70
2021/10/01 10:17:48;;;;;;;11.00;5.20;;;;;;;14.42;75.84;100144.22;113019;1196;97561;-71
2021/10/01 10:20:20;;;;;;;8.70;4.50;;;;;;;14.55;75.80;100141.05;113029;1195;111237;-70
2021/10/01 10:22:51;;;;;;;10.40;4.80;;;;;;;14.67;75.60;100136.60;112915;1195;97568;-72
2021/10/01 10:25:21;;;;;;;10.00;4.40;;;;;;;14.72;75.66;100138.89;112952;1196;106663;-71
2021/10/01 10:27:49;;;;;;;8.10;4.40;;;;;;;14.81;75.78;100139.70;112990;1197;97553;-69
2021/10/01 10:30:21;;;;;;;8.00;3.90;;;;;;;14.89;75.75;100134.98;112864;1196;96018;-70
2021/10/01 10:32:49;;;;;;;10.10;3.80;;;;;;;14.97;75.57;100135.14;113007;1195;110916;-70
2021/10/01 10:35:19;;;;;;;8.90;3.90;;;;;;;15.00;75.66;100133.13;113140;1195;97524;-71
2021/10/01 10:37:53;;;;;;;;;;;;;;;15.03;75.52;100130.58;113073;1196;107573;-72
2021/10/01 10:40:25;;;;;;;8.80;4.30;;;;;;;15.04;75.38;100129.80;112895;1196;97579;-71
2021/10/01 10:43:06;;;;;;;10.60;4.20;;;;;;;15.04;75.23;100127.12;113091;1195;97681;-71
2021/10/01 10:45:36;;;;;;;7.00;3.70;;;;;;;15.06;75.30;100131.95;113096;1196;111169;-70
2021/10/01 10:48:11;;;;;;;10.70;3.80;;;;;;;15.09;75.23;100132.10;112764;1196;97553;-71
2021/10/01 10:50:44;;;;;;;11.30;4.60;;;;;;;15.05;75.21;100130.98;114806;1195;109982;-73
2021/10/01 10:53:31;;;;;;;12.10;4.90;;;;;;;14.99;75.12;100131.58;114555;1195;95528;-71
2021/10/01 10:56:03;;;;;;;8.10;4.30;;;;;;;14.97;75.06;100133.88;113540;1196;97540;-72
2021/10/01 10:58:40;;;;;;;6.60;4.00;;;;;;;14.98;75.01;100133.64;112925;1195;111191;-71
2021/10/01 11:01:12;;;;;;;8.80;4.00;;;;;;;14.97;74.90;100129.40;113176;1196;97690;-70
2021/10/01 11:03:54;;;;;;;12.90;5.20;;;;;;;14.93;74.94;100126.52;113046;1195;108597;-73
2021/10/01 11:06:22;;;;;;;10.30;4.20;;;;;;;14.87;74.82;100129.79;113232;1196;97671;-72
2021/10/01 11:09:13;;;;;;;10.70;4.20;;;;;;;14.85;74.91;100129.27;113243;1196;97587;-71
2021/10/01 11:11:46;;;;;;;8.90;4.40;;;;;;;14.81;74.90;100131.66;113090;1196;111389;-72
2021/10/01 11:14:14;;;;;;;10.80;4.00;;;;;;;14.78;74.74;100131.36;113030;1195;97562;-70
2021/10/01 11:16:47;;;;;;;9.90;4.40;;;;;;;14.74;74.75;100127.70;113079;1196;107504;-70
2021/10/01 11:19:15;;;;;;;8.00;3.20;;;;;;;14.74;74.50;100126.81;113038;1195;97599;-72
2021/10/01 11:21:45;;;;;;;6.10;3.40;;;;;;;14.52;73.42;100123.58;112880;1196;97671;-73
2021/10/01 11:24:23;;;;;;;6.60;3.40;;;;;;;14.19;73.24;100124.28;112781;1196;110899;-72
2021/10/01 11:26:57;;;;;;;6.20;3.20;;;;;;;14.02;73.57;100124.04;112766;1196;97637;-72
2021/10/01 11:29:35;;;;;;;4.70;2.90;;;;;;;13.96;72.79;100119.29;112875;1196;107255;-70
2021/10/01 11:32:08;;;;;;;5.20;3.00;;;;;;;13.90;72.59;100115.08;112964;1195;97579;-72
2021/10/01 11:34:40;;;;;;;6.70;2.90;;;;;;;13.98;72.60;100113.41;113042;1197;97738;-72
2021/10/01 11:37:28;;;;;;;6.00;3.10;;;;;;;14.01;72.45;100112.70;113108;1195;111635;-72
2021/10/01 11:40:09;;;;;;;7.10;3.20;;;;;;;14.02;72.45;100104.13;113096;1196;96303;-72
2021/10/01 11:42:45;;;;;;;6.90;3.10;;;;;;;14.14;72.49;100099.52;113139;1196;107631;-72
2021/10/01 11:45:25;;;;;;;6.20;3.40;;;;;;;14.20;72.32;100095.90;112988;1196;95761;-71
2021/10/01 11:48:06;;;;;;;4.70;3.00;;;;;;;14.30;71.76;100101.53;112800;1196;97663;-72
2021/10/01 11:50:44;;;;;;;6.60;3.20;;;;;;;14.39;71.78;100099.15;113096;1196;111184;-74
2021/10/01 11:53:20;;;;;;;4.60;2.60;;;;;;;14.46;72.06;100101.66;113205;1196;97609;-71
2021/10/01 11:55:56;;;;;;;5.00;2.60;;;;;;;14.52;71.55;100108.55;113033;1196;107506;-73
2021/10/01 11:58:29;;;;;;;5.10;2.70;;;;;;;14.54;71.72;100106.45;113062;1195;98098;-72
2021/10/01 12:01:17;;;;;;;6.00;3.20;;;;;;;14.61;71.69;100104.17;113051;1195;97583;-72
2021/10/01 12:03:50;;;;;;;4.70;2.50;;;;;;;14.60;71.20;100102.64;113033;1196;111235;-71
2021/10/01 12:06:23;;;;;;;6.40;3.10;;;;;;;14.51;70.97;100103.08;112981;1196;97501;-71
2021/10/01 12:09:08;;;;;;;5.90;2.90;;;;;;;14.46;71.13;100101.30;112956;1196;107536;-71
2021/10/01 12:11:43;;;;;;;9.20;2.80;;;;;;;14.46;70.92;100092.91;112740;1196;95060;-71
2021/10/01 12:14:16;;;;;;;5.90;2.90;;;;;;;14.44;71.07;100088.59;113123;1196;97575;-71
2021/10/01 12:17:06;;;;;;;8.80;2.90;;;;;;;14.52;71.09;100090.37;112761;1196;111246;-72
2021/10/01 12:19:34;;;;;;;5.80;3.20;;;;;;;14.57;71.05;100088.38;112999;1196;97638;-72
2021/10/01 12:22:17;;;;;;;4.40;2.70;;;;;;;14.58;70.47;100086.16;113058;1195;107495;-72
2021/10/01 12:24:53;;;;;;;4.90;2.80;;;;;;;14.58;70.59;100083.29;112834;1196;97660;-70
2021/10/01 12:27:40;;;;;;;4.30;2.80;;;;;;;14.69;70.74;100080.71;113005;1196;97735;-72
2021/10/01 12:30:12;;;;;;;8.10;3.00;;;;;;;14.76;70.81;100080.79;113058;1197;111200;-72
2021/10/01 12:32:47;;;;;;;8.60;4.10;;;;;;;14.83;70.74;100080.99;113147;1197;97650;-72
2021/10/01 12:35:17;;;;;;;9.00;3.80;;;;;;;14.82;70.73;100076.92;113085;1196;105873;-72
2021/10/01 12:37:45;;;;;;;5.80;3.60;;;;;;;14.82;70.67;100074.46;113156;1195;95899;-72
2021/10/01 12:40:13;;;;;;;5.70;3.70;;;;;;;14.81;70.68;100071.15;113161;1196;97507;-71
2021/10/01 12:42:41;;;;;;;9.30;4.10;;;;;;;14.77;70.53;100066.77;113145;1196;109866;-72
2021/10/01 12:45:20;;;;;;;6.70;3.80;;;;;;;14.71;70.58;100067.58;113036;1196;97654;-71
2021/10/01 12:47:51;;;;;;;6.20;3.60;;;;;;;14.67;70.55;100065.16;113002;1196;108027;-72
2021/10/01 12:50:32;;;;;;;7.40;3.80;;;;;;;14.67;70.53;100061.96;112656;1196;96432;-72
2021/10/01 12:53:04;;;;;;;10.40;3.90;;;;;;;14.65;70.38;100057.30;112861;1196;97576;-71
2021/10/01 12:55:34;;;;;;;7.70;3.80;;;;;;;14.64;70.44;100055.42;113107;1196;111145;-71
2021/10/01 12:58:02;;;;;;;7.80;3.70;;;;;;;14.63;70.37;100051.56;113120;1196;97694;-73
2021/10/01 13:00:38;;;;;;;7.00;3.40;;;;;;;14.62;70.37;100051.47;113127;1195;107335;-74
2021/10/01 13:03:14;;;;;;;6.70;3.70;;;;;;;14.67;70.48;100054.61;113116;1195;97640;-73